createdAt,value
2022-10-05T00:02:43.520Z,8.98
2022-10-05T00:06:48.331Z,12.70
2022-10-05T00:10:51.072Z,12.48
2022-10-05T00:14:55.534Z,6.43
2022-10-05T00:18:59.433Z,9.02
2022-10-05T00:23:02.510Z,9.48
2022-10-05T00:27:15.037Z,13.38
2022-10-05T00:31:22.352Z,10.05
2022-10-05T00:35:24.400Z,8.80
2022-10-05T00:39:25.807Z,9.25
2022-10-05T00:43:50.862Z,8.65
2022-10-05T00:47:52.637Z,11.43
2022-10-05T00:52:22.344Z,10.30
2022-10-05T00:56:36.071Z,8.43
2022-10-05T01:01:06.878Z,9.60
2022-10-05T01:05:22.047Z,12.00
2022-10-05T01:09:34.013Z,9.23
2022-10-05T01:13:45.138Z,9.02
2022-10-05T01:17:50.856Z,12.15
2022-10-05T01:22:06.332Z,9.32
2022-10-05T01:26:18.865Z,11.82
2022-10-05T01:30:21.888Z,9.40
2022-10-05T01:34:29.325Z,11.75
2022-10-05T01:38:43.388Z,11.95
2022-10-05T01:43:00.185Z,10.57
2022-10-05T01:47:12.402Z,10.60
2022-10-05T01:51:16.642Z,13.55
2022-10-05T01:55:52.609Z,11.77
2022-10-05T02:00:09.031Z,12.93
2022-10-05T02:04:59.792Z,10.48
2022-10-05T02:08:55.151Z,10.52
2022-10-05T02:13:03.822Z,15.00
2022-10-05T02:17:11.732Z,11.65
2022-10-05T02:25:18.844Z,12.02
2022-10-05T02:29:24.036Z,12.73
2022-10-05T02:33:30.109Z,12.02
2022-10-05T02:37:43.919Z,12.18
2022-10-05T02:42:23.603Z,13.02
2022-10-05T02:47:02.237Z,11.93
2022-10-05T02:51:10.120Z,13.68
2022-10-05T02:59:36.474Z,14.32
2022-10-05T03:03:42.205Z,14.27
2022-10-05T03:07:46.961Z,13.98
2022-10-05T03:12:14.424Z,12.15
2022-10-05T03:16:24.099Z,10.70
2022-10-05T03:20:52.260Z,11.93
2022-10-05T03:25:15.199Z,16.33
2022-10-05T03:29:19.871Z,13.35
2022-10-05T03:33:31.364Z,13.05
2022-10-05T03:37:42.130Z,10.40
2022-10-05T03:41:55.179Z,14.75
2022-10-05T03:46:21.078Z,10.50
2022-10-05T03:50:41.327Z,9.55
2022-10-05T03:54:59.933Z,10.27
2022-10-05T03:59:09.925Z,11.27
2022-10-05T04:03:17.075Z,13.80
2022-10-05T04:07:50.497Z,12.32
2022-10-05T04:12:21.325Z,11.68
2022-10-05T04:16:28.433Z,11.20
2022-10-05T04:20:40.105Z,9.32
2022-10-05T04:24:51.953Z,15.80
2022-10-05T04:29:11.878Z,11.50
2022-10-05T04:33:13.858Z,10.68
2022-10-05T04:37:23.913Z,9.55
2022-10-05T04:41:53.031Z,12.10
2022-10-05T04:46:17.604Z,12.25
2022-10-05T04:50:28.770Z,9.57
2022-10-05T04:54:42.520Z,10.32
2022-10-05T04:58:56.823Z,11.40
2022-10-05T05:03:04.769Z,15.30
2022-10-05T05:08:02.503Z,11.38
2022-10-05T05:12:19.515Z,12.50
2022-10-05T05:16:23.915Z,13.47
2022-10-05T05:21:02.752Z,10.52
2022-10-05T05:25:19.547Z,12.20
2022-10-05T05:30:09.011Z,12.97
2022-10-05T05:34:16.715Z,17.48
2022-10-05T05:38:36.156Z,15.65
2022-10-05T05:42:47.839Z,16.35
2022-10-05T05:47:09.645Z,16.90
2022-10-05T05:51:16.051Z,18.27
2022-10-05T05:55:30.722Z,15.88
2022-10-05T05:59:41.676Z,13.75
2022-10-05T06:03:54.114Z,17.15
2022-10-05T06:07:58.467Z,19.58
2022-10-05T06:12:16.816Z,15.95
2022-10-05T06:16:23.507Z,15.85
2022-10-05T06:20:28.926Z,16.15
2022-10-05T06:24:36.102Z,15.13
2022-10-05T06:28:37.912Z,13.93
2022-10-05T06:32:45.311Z,14.88
2022-10-05T06:36:53.319Z,12.98
2022-10-05T06:41:21.359Z,18.33
2022-10-05T06:45:35.032Z,13.75
2022-10-05T06:49:45.732Z,18.50
2022-10-05T06:53:54.576Z,14.35
2022-10-05T06:58:05.419Z,15.02
2022-10-05T07:02:25.407Z,11.20
2022-10-05T07:06:32.707Z,12.00
2022-10-05T07:10:51.672Z,13.80
2022-10-05T07:15:15.334Z,12.40
2022-10-05T07:19:32.679Z,9.55
2022-10-05T07:24:14.020Z,10.85
2022-10-05T07:28:28.888Z,9.35
2022-10-05T07:32:37.114Z,9.00
2022-10-05T07:37:06.061Z,7.15
2022-10-05T07:41:14.749Z,8.13
2022-10-05T07:45:41.729Z,10.32
2022-10-05T07:49:54.196Z,7.63
2022-10-05T07:54:14.592Z,6.85
2022-10-05T07:58:28.912Z,6.85
2022-10-05T08:02:58.595Z,8.43
2022-10-05T08:07:03.455Z,8.77
2022-10-05T08:11:16.059Z,22.88
2022-10-05T08:15:23.637Z,10.27
2022-10-05T08:19:30.308Z,7.35
2022-10-05T08:23:44.641Z,4.82
2022-10-05T08:28:10.979Z,4.75
2022-10-05T08:32:25.906Z,4.53
2022-10-05T08:36:39.315Z,4.40
2022-10-05T08:40:58.748Z,3.58
2022-10-05T08:45:24.757Z,4.25
2022-10-05T08:50:04.318Z,5.15
2022-10-05T08:54:20.976Z,3.72
2022-10-05T08:58:48.541Z,4.07
2022-10-05T09:07:28.627Z,4.50
2022-10-05T09:11:40.803Z,3.00
2022-10-05T09:15:55.038Z,4.85
2022-10-05T09:20:21.102Z,4.47
2022-10-05T09:24:53.476Z,6.35
2022-10-05T09:29:04.023Z,3.97
2022-10-05T09:33:26.032Z,3.97
2022-10-05T09:37:58.712Z,5.70
2022-10-05T09:42:16.283Z,4.80
2022-10-05T09:50:55.667Z,3.47
2022-10-05T09:55:25.612Z,3.38
2022-10-05T09:59:48.762Z,3.53
2022-10-05T10:03:59.636Z,3.40
2022-10-05T10:08:21.085Z,4.82
2022-10-05T10:12:25.376Z,2.53
2022-10-05T10:16:35.788Z,3.33
2022-10-05T10:20:59.659Z,4.05
2022-10-05T10:25:27.933Z,1.58
2022-10-05T10:29:48.124Z,4.38
2022-10-05T10:33:55.859Z,3.95
2022-10-05T10:38:03.755Z,2.65
2022-10-05T10:42:14.986Z,6.07
2022-10-05T10:46:54.518Z,2.63
2022-10-05T10:51:14.541Z,1.98
2022-10-05T10:55:25.775Z,3.55
2022-10-05T10:59:57.879Z,2.50
2022-10-05T11:04:21.098Z,3.83
2022-10-05T11:08:41.367Z,3.40
2022-10-05T11:13:25.023Z,3.47
2022-10-05T11:17:45.257Z,2.33
2022-10-05T11:21:55.962Z,3.78
2022-10-05T11:26:15.709Z,4.55
2022-10-05T11:30:26.951Z,2.25
2022-10-05T11:34:51.722Z,2.42
2022-10-05T11:39:06.080Z,3.40
2022-10-05T11:43:38.786Z,2.88
2022-10-05T11:48:04.912Z,2.80
2022-10-05T11:52:17.131Z,2.45
2022-10-05T12:01:04.496Z,3.30
2022-10-05T12:05:18.395Z,2.53
2022-10-05T12:10:14.402Z,2.90
2022-10-05T12:14:20.583Z,2.47
2022-10-05T12:18:39.338Z,3.50
2022-10-05T12:22:45.604Z,3.92
2022-10-05T12:26:59.695Z,2.38
2022-10-05T12:31:12.540Z,2.20
2022-10-05T12:35:47.486Z,1.90
2022-10-05T12:40:21.900Z,2.22
2022-10-05T12:44:46.986Z,0.90
2022-10-05T12:49:00.702Z,1.67
2022-10-05T12:53:17.107Z,2.55
2022-10-05T12:57:29.055Z,2.92
2022-10-05T13:01:52.396Z,4.95
2022-10-05T13:06:15.481Z,2.42
2022-10-05T13:10:39.478Z,4.47
2022-10-05T13:14:50.183Z,2.05
2022-10-05T13:19:29.305Z,1.92
2022-10-05T13:23:46.251Z,4.80
2022-10-05T13:28:05.382Z,1.15
2022-10-05T13:32:20.975Z,0.98
2022-10-05T13:36:32.742Z,2.08
2022-10-05T13:40:58.006Z,1.10
2022-10-05T13:45:24.863Z,1.05
2022-10-05T13:49:41.353Z,0.73
2022-10-05T13:54:06.656Z,0.97
2022-10-05T13:58:19.816Z,5.95
2022-10-05T14:02:27.626Z,1.65
2022-10-05T14:06:36.956Z,1.85
2022-10-05T14:10:43.975Z,1.33
2022-10-05T14:14:53.788Z,1.10
2022-10-05T14:19:15.908Z,2.10
2022-10-05T14:23:24.646Z,5.75
2022-10-05T14:27:29.374Z,1.52
2022-10-05T14:31:34.530Z,0.55
2022-10-05T14:35:51.066Z,0.50
2022-10-05T14:39:56.208Z,2.03
2022-10-05T14:44:10.017Z,1.02
2022-10-05T14:48:11.916Z,3.03
2022-10-05T14:52:51.683Z,2.38
2022-10-05T14:57:12.109Z,1.02
2022-10-05T15:01:30.973Z,1.23
2022-10-05T15:05:52.726Z,3.58
2022-10-05T15:10:00.183Z,1.63
2022-10-05T15:18:07.958Z,1.75
2022-10-05T15:22:26.406Z,1.20
2022-10-05T15:26:46.488Z,1.48
2022-10-05T15:30:54.158Z,1.02
2022-10-05T15:35:22.432Z,1.40
2022-10-05T15:39:52.115Z,2.92
2022-10-05T15:43:59.458Z,1.17
2022-10-05T15:48:32.351Z,1.08
2022-10-05T15:52:41.323Z,3.92
2022-10-05T15:56:48.019Z,1.50
2022-10-05T16:01:17.637Z,0.83
2022-10-05T16:06:05.858Z,1.73
2022-10-05T16:10:17.284Z,1.20
2022-10-05T16:14:37.042Z,4.28
2022-10-05T16:18:51.829Z,1.65
2022-10-05T16:23:12.134Z,2.03
2022-10-05T16:27:41.039Z,1.40
2022-10-05T16:32:00.009Z,2.20
2022-10-05T16:36:16.288Z,1.73
2022-10-05T16:40:21.920Z,3.92
2022-10-05T16:44:40.452Z,3.20
2022-10-05T16:48:53.723Z,2.03
2022-10-05T16:53:12.634Z,2.70
2022-10-05T16:57:17.438Z,1.70
2022-10-05T17:01:30.151Z,2.45
2022-10-05T17:05:38.650Z,2.53
2022-10-05T17:09:49.167Z,3.88
2022-10-05T17:14:19.944Z,4.38
2022-10-05T17:18:50.260Z,3.40
2022-10-05T17:22:59.120Z,2.88
2022-10-05T17:27:18.641Z,4.38
2022-10-05T17:31:23.041Z,3.67
2022-10-05T17:35:47.294Z,2.30
2022-10-05T17:39:51.341Z,2.13
2022-10-05T17:44:16.184Z,2.65
2022-10-05T17:49:06.928Z,2.83
2022-10-05T17:53:46.493Z,3.00
2022-10-05T17:57:48.991Z,4.15
2022-10-05T18:02:19.454Z,2.30
2022-10-05T18:06:31.503Z,3.08
2022-10-05T18:10:35.617Z,4.43
2022-10-05T18:15:00.319Z,2.75
2022-10-05T18:19:02.027Z,2.05
2022-10-05T18:23:03.681Z,3.35
2022-10-05T18:27:35.152Z,2.47
2022-10-05T18:32:01.190Z,6.97
2022-10-05T18:36:24.120Z,2.95
2022-10-05T18:40:57.078Z,3.70
2022-10-05T18:45:24.179Z,4.28
2022-10-05T18:49:48.066Z,3.38
2022-10-05T18:54:27.003Z,5.40
2022-10-05T18:58:59.129Z,5.80
2022-10-05T19:03:14.797Z,4.05
2022-10-05T19:07:27.335Z,5.63
2022-10-05T19:11:41.311Z,3.75
2022-10-05T19:15:42.912Z,4.32
2022-10-05T19:20:00.482Z,4.95
2022-10-05T19:28:52.208Z,3.55
2022-10-05T19:33:04.841Z,3.88
2022-10-05T19:37:38.878Z,4.25
2022-10-05T19:41:59.556Z,2.80
2022-10-05T19:46:25.453Z,7.00
2022-10-05T19:50:29.953Z,4.57
2022-10-05T19:54:31.559Z,4.80
2022-10-05T19:58:40.038Z,4.78
2022-10-05T20:02:42.225Z,2.20
2022-10-05T20:06:43.751Z,5.53
2022-10-05T20:10:46.535Z,4.85
2022-10-05T20:15:06.829Z,4.60
2022-10-05T20:19:45.602Z,3.50
2022-10-05T20:23:47.029Z,3.97
2022-10-05T20:27:55.173Z,3.92
2022-10-05T20:31:57.414Z,5.80
2022-10-05T20:35:58.910Z,2.85
2022-10-05T20:40:00.329Z,3.50
2022-10-05T20:44:02.515Z,3.17
2022-10-05T20:48:04.024Z,8.50
2022-10-05T20:52:06.732Z,4.25
2022-10-05T20:56:08.303Z,3.60
2022-10-05T21:00:12.258Z,5.75
2022-10-05T21:04:18.503Z,2.85
2022-10-05T21:08:20.131Z,4.03
2022-10-05T21:12:21.694Z,5.57
2022-10-05T21:16:24.752Z,9.13
2022-10-05T21:20:26.204Z,5.75
2022-10-05T21:24:27.605Z,6.32
2022-10-05T21:28:29.780Z,5.25
2022-10-05T21:32:31.471Z,5.68
2022-10-05T21:36:33.444Z,5.78
2022-10-05T21:40:38.208Z,6.10
2022-10-05T21:44:39.782Z,6.57
2022-10-05T21:48:41.491Z,5.00
2022-10-05T21:52:43.098Z,5.22
2022-10-05T21:56:48.069Z,5.65
2022-10-05T22:00:49.707Z,3.65
2022-10-05T22:04:51.692Z,3.17
2022-10-05T22:08:53.104Z,4.80
2022-10-05T22:13:03.154Z,3.90
2022-10-05T22:17:05.147Z,3.70
2022-10-05T22:21:08.361Z,7.28
2022-10-05T22:25:09.802Z,6.00
2022-10-05T22:29:11.769Z,3.95
2022-10-05T22:33:13.729Z,4.80
2022-10-05T22:37:15.602Z,6.40
2022-10-05T22:41:18.558Z,5.72
2022-10-05T22:45:20.213Z,4.70
2022-10-05T22:49:21.857Z,4.32
2022-10-05T22:53:23.313Z,5.55
2022-10-05T22:57:25.004Z,3.58
2022-10-05T23:01:27.380Z,6.38
2022-10-05T23:05:30.624Z,3.92
2022-10-05T23:09:32.242Z,11.63
2022-10-05T23:13:33.887Z,7.10
2022-10-05T23:17:36.986Z,5.80
2022-10-05T23:21:39.012Z,3.47
2022-10-05T23:25:40.720Z,5.78
2022-10-05T23:29:42.109Z,4.97
2022-10-05T23:33:43.841Z,6.22
2022-10-05T23:37:45.647Z,4.72
2022-10-05T23:41:47.097Z,6.38
2022-10-05T23:45:48.801Z,5.15
2022-10-05T23:49:50.419Z,4.03
2022-10-05T23:53:52.125Z,5.50
2022-10-05T23:57:53.555Z,7.75
